Time;durP1;ratioP1;P1;durP2;ratioP2;P2;SDS_P1;SDS_P2;PMS_P1;PMS_P2;Temp;Humidity;BMP_temperature;BMP_pressure;BME280_temperature;BME280_humidity;BME280_pressure;Samples;Min_cycle;Max_cycle;Signal;HPM_P1;HPM_P2
2022/01/13 00:02:31;;;;;;;64.63;26.33;;;;;;;;;;4971447;28;20298;-71
2022/01/13 00:04:57;;;;;;;56.30;23.87;;;;;;;;;;4973615;28;20303;-70
2022/01/13 00:07:22;;;;;;;52.60;24.83;;;;;;;;;;4972293;28;20229;-72
2022/01/13 00:09:48;;;;;;;55.60;24.63;;;;;;;;;;4973477;28;20233;-71
2022/01/13 00:12:19;;;;;;;56.00;24.17;;;;;;;;;;4954791;28;20287;-71
2022/01/13 00:17:55;;;;;;;53.03;25.10;;;;;;;;;;4951155;28;20254;-72
2022/01/13 00:23:38;;;;;;;51.43;23.47;;;;;;;;;;4955096;28;20230;-71
2022/01/13 00:25:34;;;;;;;51.80;24.40;;;;;;;;;;4958052;28;20225;-72
2022/01/13 00:28:03;;;;;;;55.77;25.90;;;;;;;;;;4956680;28;20300;-70
2022/01/13 00:30:28;;;;;;;58.60;25.83;;;;;;;;;;4948735;28;20245;-71
2022/01/13 00:32:54;;;;;;;57.63;25.00;;;;;;;;;;4972728;28;20230;-71
2022/01/13 00:35:19;;;;;;;56.23;27.83;;;;;;;;;;4971576;28;20726;-70
2022/01/13 00:37:47;;;;;;;66.97;28.87;;;;;;;;;;4971699;28;20253;-71
2022/01/13 00:40:17;;;;;;;73.60;29.40;;;;;;;;;;4939621;28;20238;-71
2022/01/13 00:42:45;;;;;;;63.07;27.97;;;;;;;;;;4940460;28;20238;-70
2022/01/13 00:45:16;;;;;;;63.70;27.07;;;;;;;;;;4958177;28;20253;-71
2022/01/13 00:47:42;;;;;;;61.47;27.90;;;;;;;;;;4941782;28;20236;-71
2022/01/13 00:50:10;;;;;;;58.17;24.33;;;;;;;;;;4941266;28;20265;-71
2022/01/13 00:52:36;;;;;;;59.40;26.70;;;;;;;;;;4971818;28;20225;-71
2022/01/13 00:55:08;;;;;;;57.90;28.30;;;;;;;;;;4955976;28;20652;-71
2022/01/13 00:57:34;;;;;;;66.30;26.97;;;;;;;;;;4936815;29;20662;-70
2022/01/13 01:00:04;;;;;;;61.13;27.10;;;;;;;;;;4968107;28;20297;-71
2022/01/13 01:02:30;;;;;;;61.67;26.50;;;;;;;;;;4972237;28;20222;-71
2022/01/13 01:05:00;;;;;;;72.73;28.37;;;;;;;;;;4955620;28;20226;-72
2022/01/13 01:07:28;;;;;;;65.47;27.37;;;;;;;;;;4939447;28;20222;-71
2022/01/13 01:09:55;;;;;;;63.13;26.80;;;;;;;;;;4955693;28;20221;-71
2022/01/13 01:12:20;;;;;;;62.97;26.03;;;;;;;;;;4970256;28;20236;-70
2022/01/13 01:14:52;;;;;;;56.23;24.27;;;;;;;;;;4971001;28;20222;-71
2022/01/13 01:17:20;;;;;;;62.27;25.53;;;;;;;;;;4955617;28;20234;-70
2022/01/13 01:19:48;;;;;;;66.00;25.67;;;;;;;;;;4955213;28;20300;-69
2022/01/13 01:25:31;;;;;;;60.23;24.17;;;;;;;;;;4953348;28;20226;-70
2022/01/13 01:27:54;;;;;;;61.23;24.70;;;;;;;;;;4970967;28;20611;-71
2022/01/13 01:30:31;;;;;;;64.03;28.97;;;;;;;;;;4970251;28;20214;-71
2022/01/13 01:32:56;;;;;;;58.43;25.47;;;;;;;;;;4970407;28;20727;-72
2022/01/13 01:35:25;;;;;;;54.17;23.93;;;;;;;;;;4970522;28;20230;-71
2022/01/13 01:37:51;;;;;;;53.70;23.87;;;;;;;;;;4940643;28;20253;-71
2022/01/13 01:40:22;;;;;;;53.57;24.30;;;;;;;;;;4954887;28;20230;-71
2022/01/13 01:42:50;;;;;;;57.17;23.43;;;;;;;;;;4935761;29;20218;-71
2022/01/13 01:45:16;;;;;;;55.37;22.30;;;;;;;;;;4951290;28;20708;-71
2022/01/13 01:47:45;;;;;;;58.47;23.73;;;;;;;;;;4965852;28;20253;-71
2022/01/13 01:50:22;;;;;;;55.53;23.07;;;;;;;;;;4970720;28;20234;-71
2022/01/13 01:52:49;;;;;;;55.10;23.93;;;;;;;;;;4970466;28;20280;-71
2022/01/13 01:55:15;;;;;;;55.57;23.37;;;;;;;;;;4954601;28;20726;-71
2022/01/13 01:57:44;;;;;;;53.83;22.13;;;;;;;;;;4960858;28;20226;-70
2022/01/13 02:00:14;;;;;;;54.20;22.80;;;;;;;;;;4941075;28;20613;-72
2022/01/13 02:02:43;;;;;;;59.57;24.37;;;;;;;;;;4955082;28;20226;-72
2022/01/13 02:05:08;;;;;;;57.70;24.67;;;;;;;;;;4953835;28;20226;-72
2022/01/13 02:07:34;;;;;;;59.60;24.67;;;;;;;;;;4945517;28;20269;-71
2022/01/13 02:10:02;;;;;;;64.40;25.63;;;;;;;;;;4970913;28;20261;-69
2022/01/13 02:12:41;;;;;;;61.37;24.90;;;;;;;;;;4953808;28;20226;-71
2022/01/13 02:17:41;;;;;;;68.53;26.90;;;;;;;;;;4951298;28;20712;-72
2022/01/13 02:20:18;;;;;;;59.20;25.43;;;;;;;;;;4934946;28;20231;-71
2022/01/13 02:22:43;;;;;;;64.43;25.97;;;;;;;;;;4935273;28;20305;-69
2022/01/13 02:25:09;;;;;;;66.53;26.60;;;;;;;;;;4934590;28;20373;-72
2022/01/13 02:27:34;;;;;;;71.37;26.67;;;;;;;;;;4936893;28;20276;-71
2022/01/13 02:30:00;;;;;;;66.87;26.80;;;;;;;;;;4929775;28;20582;-70
2022/01/13 02:32:27;;;;;;;63.23;25.50;;;;;;;;;;4972836;28;20742;-71
2022/01/13 02:34:53;;;;;;;66.53;25.50;;;;;;;;;;4954764;28;20217;-71
2022/01/13 02:37:21;;;;;;;66.17;24.80;;;;;;;;;;4969306;28;20213;-72
2022/01/13 02:39:47;;;;;;;67.33;26.70;;;;;;;;;;4954038;28;20759;-71
2022/01/13 02:42:14;;;;;;;67.20;24.93;;;;;;;;;;4953466;28;20218;-71
2022/01/13 02:45:02;;;;;;;70.57;26.43;;;;;;;;;;4971436;28;20230;-72
2022/01/13 02:50:14;;;;;;;67.37;26.00;;;;;;;;;;4970666;28;20226;-71
2022/01/13 02:52:39;;;;;;;65.40;24.37;;;;;;;;;;4954102;28;20276;-70
2022/01/13 02:55:05;;;;;;;60.77;26.70;;;;;;;;;;4953808;28;20225;-71
2022/01/13 02:57:33;;;;;;;64.00;24.97;;;;;;;;;;4970176;28;20599;-70
2022/01/13 03:00:02;;;;;;;68.47;27.70;;;;;;;;;;4934613;28;20249;-70
2022/01/13 03:02:32;;;;;;;71.63;26.97;;;;;;;;;;4952883;28;20738;-71
2022/01/13 03:05:00;;;;;;;73.30;27.33;;;;;;;;;;4969742;28;20289;-71
2022/01/13 03:07:27;;;;;;;77.63;29.10;;;;;;;;;;4953622;28;20599;-71
2022/01/13 03:09:53;;;;;;;78.33;28.47;;;;;;;;;;4954084;28;20226;-71
2022/01/13 03:12:18;;;;;;;77.87;29.17;;;;;;;;;;4953263;28;20715;-71
2022/01/13 03:14:44;;;;;;;76.67;28.43;;;;;;;;;;4970079;28;20225;-70
2022/01/13 03:17:14;;;;;;;80.33;27.23;;;;;;;;;;4937416;28;20234;-71
2022/01/13 03:19:40;;;;;;;77.90;27.83;;;;;;;;;;4938328;28;20218;-71
2022/01/13 03:22:05;;;;;;;77.43;29.17;;;;;;;;;;4936675;28;20958;-70
2022/01/13 03:24:33;;;;;;;66.67;24.57;;;;;;;;;;4956694;28;20731;-70
2022/01/13 03:27:02;;;;;;;80.93;28.57;;;;;;;;;;4973416;28;20222;-70
2022/01/13 03:29:31;;;;;;;80.40;28.00;;;;;;;;;;4957145;28;20222;-70
2022/01/13 03:31:57;;;;;;;69.80;26.27;;;;;;;;;;4940630;28;20226;-70
2022/01/13 03:34:22;;;;;;;73.37;27.07;;;;;;;;;;4947402;28;20314;-70
2022/01/13 03:36:48;;;;;;;71.20;26.87;;;;;;;;;;4953822;28;20751;-71
2022/01/13 03:39:13;;;;;;;81.97;28.17;;;;;;;;;;4956180;28;20302;-71
2022/01/13 03:41:39;;;;;;;71.33;26.60;;;;;;;;;;4956653;28;20313;-71
2022/01/13 03:44:17;;;;;;;80.73;27.90;;;;;;;;;;4956478;28;20222;-71
2022/01/13 03:46:43;;;;;;;80.07;28.60;;;;;;;;;;4973118;28;20226;-71
2022/01/13 03:49:11;;;;;;;93.33;31.77;;;;;;;;;;4956407;28;20298;-70
2022/01/13 03:51:58;;;;;;;75.63;26.33;;;;;;;;;;4941514;28;20226;-71
2022/01/13 03:54:32;;;;;;;87.20;30.17;;;;;;;;;;4972342;28;20226;-71
2022/01/13 03:57:19;;;;;;;75.90;27.43;;;;;;;;;;4972462;28;20253;-70
2022/01/13 04:00:07;;;;;;;89.03;28.33;;;;;;;;;;4972077;28;20221;-71
2022/01/13 04:02:41;;;;;;;80.83;28.13;;;;;;;;;;5037013;23;20781;-71
2022/01/13 04:05:12;;;;;;;102.83;32.47;;;;;;;;;;4955840;28;20233;-71
2022/01/13 04:07:37;;;;;;;90.80;29.47;;;;;;;;;;4956487;28;20226;-71
2022/01/13 04:10:19;;;;;;;89.37;29.13;;;;;;;;;;4956367;28;20333;-71
2022/01/13 04:12:47;;;;;;;87.40;29.13;;;;;;;;;;4972539;28;20229;-71
2022/01/13 04:15:13;;;;;;;95.07;29.43;;;;;;;;;;4960029;28;20241;-71
2022/01/13 04:17:41;;;;;;;84.50;30.23;;;;;;;;;;4960159;28;20246;-70
2022/01/13 04:20:08;;;;;;;93.93;31.73;;;;;;;;;;4993002;28;20232;-71
2022/01/13 04:22:33;;;;;;;84.20;27.70;;;;;;;;;;4975994;28;20253;-71
2022/01/13 04:25:01;;;;;;;80.57;28.73;;;;;;;;;;5000487;28;20236;-70
2022/01/13 04:27:35;;;;;;;92.80;29.13;;;;;;;;;;4959783;28;20217;-71
2022/01/13 04:30:33;;;;;;;95.87;30.83;;;;;;;;;;4991033;28;20218;-71
2022/01/13 04:32:57;;;;;;;83.10;26.77;;;;;;;;;;4961546;28;20256;-71
2022/01/13 04:35:25;;;;;;;103.53;31.97;;;;;;;;;;4984452;28;20300;-71
2022/01/13 04:37:53;;;;;;;85.37;30.07;;;;;;;;;;4992687;28;20751;-71
2022/01/13 04:40:18;;;;;;;87.97;29.57;;;;;;;;;;4980950;28;20880;-71
2022/01/13 04:42:53;;;;;;;95.87;30.57;;;;;;;;;;4991248;28;20249;-71
2022/01/13 04:45:19;;;;;;;68.90;24.37;;;;;;;;;;4982850;28;20232;-71
2022/01/13 04:47:48;;;;;;;90.10;28.80;;;;;;;;;;4991644;28;20284;-71
2022/01/13 04:50:16;;;;;;;91.13;28.43;;;;;;;;;;4990525;28;20661;-71
2022/01/13 04:52:44;;;;;;;92.93;29.90;;;;;;;;;;4991748;28;20225;-71
2022/01/13 04:55:12;;;;;;;87.47;28.03;;;;;;;;;;4989511;28;20703;-71
2022/01/13 04:57:42;;;;;;;84.60;27.73;;;;;;;;;;4971033;28;20238;-71
2022/01/13 05:00:09;;;;;;;81.33;28.07;;;;;;;;;;4971678;28;20296;-71
2022/01/13 05:02:37;;;;;;;82.83;25.27;;;;;;;;;;4974707;28;20785;-73
2022/01/13 05:05:06;;;;;;;81.30;27.77;;;;;;;;;;4974054;28;20229;-72
2022/01/13 05:07:37;;;;;;;88.03;28.47;;;;;;;;;;4975178;28;20241;-72
2022/01/13 05:10:05;;;;;;;88.60;28.17;;;;;;;;;;4968128;28;20218;-72
2022/01/13 05:12:36;;;;;;;97.90;29.10;;;;;;;;;;4939131;28;20643;-73
2022/01/13 05:15:04;;;;;;;79.13;25.37;;;;;;;;;;4960559;28;20217;-75
2022/01/13 05:20:21;;;;;;;85.20;28.23;;;;;;;;;;4967770;28;20217;-73
2022/01/13 05:22:48;;;;;;;79.70;28.47;;;;;;;;;;4959480;28;20222;-73
2022/01/13 05:25:17;;;;;;;98.83;28.53;;;;;;;;;;4972382;28;20226;-73
2022/01/13 05:27:43;;;;;;;94.90;29.63;;;;;;;;;;4973092;28;20304;-73
2022/01/13 05:30:17;;;;;;;78.77;25.87;;;;;;;;;;4976839;28;20708;-74
2022/01/13 05:32:46;;;;;;;82.30;26.87;;;;;;;;;;4971558;28;20221;-73
2022/01/13 05:35:15;;;;;;;82.17;25.97;;;;;;;;;;4989916;28;20213;-72
2022/01/13 05:37:44;;;;;;;95.70;28.53;;;;;;;;;;4991300;28;20221;-72
2022/01/13 05:40:11;;;;;;;88.47;26.17;;;;;;;;;;4975266;28;20755;-72
2022/01/13 05:42:39;;;;;;;101.30;28.53;;;;;;;;;;4975404;28;20296;-73
2022/01/13 05:45:13;;;;;;;88.07;27.90;;;;;;;;;;4958080;28;20301;-73
2022/01/13 05:47:40;;;;;;;85.33;27.73;;;;;;;;;;4990892;28;20229;-73
2022/01/13 05:50:06;;;;;;;89.07;27.73;;;;;;;;;;4974449;28;20226;-73
2022/01/13 05:52:34;;;;;;;96.90;29.10;;;;;;;;;;4974610;28;20288;-73
2022/01/13 05:54:59;;;;;;;93.70;30.03;;;;;;;;;;4990328;28;20308;-73
2022/01/13 05:57:25;;;;;;;94.83;28.47;;;;;;;;;;4990599;28;20694;-73
2022/01/13 05:59:50;;;;;;;97.50;29.23;;;;;;;;;;4964649;28;20276;-73
2022/01/13 06:02:16;;;;;;;95.13;32.20;;;;;;;;;;4964615;28;20229;-72
2022/01/13 06:04:46;;;;;;;91.00;28.50;;;;;;;;;;4991894;28;20221;-72
2022/01/13 06:07:11;;;;;;;88.07;27.33;;;;;;;;;;4970630;28;20233;-73
2022/01/13 06:09:37;;;;;;;88.50;28.03;;;;;;;;;;4990472;28;20304;-72
2022/01/13 06:12:06;;;;;;;84.03;28.03;;;;;;;;;;4989720;28;20239;-73
2022/01/13 06:14:34;;;;;;;91.17;28.60;;;;;;;;;;4974687;28;20217;-72
2022/01/13 06:17:01;;;;;;;86.10;27.73;;;;;;;;;;4952618;28;20253;-72
2022/01/13 06:19:27;;;;;;;89.73;28.77;;;;;;;;;;4973573;28;20254;-72
2022/01/13 06:21:57;;;;;;;85.83;28.60;;;;;;;;;;4989027;28;20229;-72
2022/01/13 06:24:23;;;;;;;91.53;28.50;;;;;;;;;;4957050;28;20221;-71
2022/01/13 06:26:50;;;;;;;99.20;29.87;;;;;;;;;;4969001;28;20236;-73
2022/01/13 06:29:19;;;;;;;87.30;27.87;;;;;;;;;;4988322;28;20854;-73
2022/01/13 06:31:44;;;;;;;91.87;28.37;;;;;;;;;;4990206;28;20221;-72
2022/01/13 06:34:15;;;;;;;84.03;26.77;;;;;;;;;;4974007;28;20838;-72
2022/01/13 06:36:41;;;;;;;92.83;30.00;;;;;;;;;;4979513;28;20245;-72
2022/01/13 06:39:08;;;;;;;95.27;30.40;;;;;;;;;;4995302;28;20225;-71
2022/01/13 06:41:44;;;;;;;99.37;28.60;;;;;;;;;;4989308;28;20232;-71
2022/01/13 06:44:12;;;;;;;91.47;29.97;;;;;;;;;;4974142;28;20612;-74
2022/01/13 06:46:38;;;;;;;102.00;30.53;;;;;;;;;;4973843;28;20715;-73
2022/01/13 06:49:04;;;;;;;92.53;28.80;;;;;;;;;;4990259;28;20228;-71
2022/01/13 06:51:32;;;;;;;106.03;29.30;;;;;;;;;;4989369;28;20226;-73
2022/01/13 06:54:00;;;;;;;102.03;30.37;;;;;;;;;;4969395;28;20233;-74
2022/01/13 06:56:26;;;;;;;87.80;29.03;;;;;;;;;;4944067;28;20606;-72
2022/01/13 06:58:52;;;;;;;108.57;30.80;;;;;;;;;;4959721;28;20940;-72
2022/01/13 07:01:18;;;;;;;97.53;29.73;;;;;;;;;;4975778;28;20225;-71
2022/01/13 07:03:48;;;;;;;90.43;29.33;;;;;;;;;;4961433;28;20222;-73
2022/01/13 07:06:13;;;;;;;99.80;29.37;;;;;;;;;;4992902;28;20232;-71
2022/01/13 07:08:44;;;;;;;105.37;29.70;;;;;;;;;;4977914;28;20213;-72
2022/01/13 07:11:09;;;;;;;101.53;30.43;;;;;;;;;;4992528;28;20225;-71
2022/01/13 07:13:37;;;;;;;102.73;27.60;;;;;;;;;;4973158;28;20586;-72
2022/01/13 07:16:03;;;;;;;111.20;29.93;;;;;;;;;;4957615;28;20250;-73
2022/01/13 07:18:28;;;;;;;86.40;29.50;;;;;;;;;;4993166;28;20275;-73
2022/01/13 07:20:55;;;;;;;116.13;31.93;;;;;;;;;;4976379;28;20217;-74
2022/01/13 07:23:21;;;;;;;99.40;27.97;;;;;;;;;;4956415;28;20336;-72
2022/01/13 07:25:46;;;;;;;95.07;28.80;;;;;;;;;;4973772;28;20289;-73
2022/01/13 07:28:12;;;;;;;118.67;31.13;;;;;;;;;;4960735;28;20225;-73
2022/01/13 07:30:40;;;;;;;108.67;33.13;;;;;;;;;;4959968;28;20229;-72
2022/01/13 07:33:12;;;;;;;109.60;29.90;;;;;;;;;;4957838;28;20230;-71
2022/01/13 07:35:38;;;;;;;100.23;29.53;;;;;;;;;;4962562;28;20237;-72
2022/01/13 07:38:06;;;;;;;85.87;28.40;;;;;;;;;;4992342;28;20789;-71
2022/01/13 07:40:34;;;;;;;92.00;28.30;;;;;;;;;;4977136;28;20224;-73
2022/01/13 07:43:02;;;;;;;91.57;28.33;;;;;;;;;;4992395;28;20225;-73
2022/01/13 07:45:28;;;;;;;102.90;29.63;;;;;;;;;;4976456;28;20694;-75
2022/01/13 07:47:53;;;;;;;103.43;30.47;;;;;;;;;;4948204;28;20321;-72
2022/01/13 07:50:19;;;;;;;100.20;30.00;;;;;;;;;;4956011;28;20225;-72
2022/01/13 07:52:47;;;;;;;101.80;30.27;;;;;;;;;;4943354;28;20715;-73
2022/01/13 07:55:13;;;;;;;83.30;27.90;;;;;;;;;;4973308;28;20760;-74
2022/01/13 07:57:38;;;;;;;89.70;28.13;;;;;;;;;;4978499;28;20316;-73
2022/01/13 08:00:08;;;;;;;86.03;27.93;;;;;;;;;;4993111;28;20213;-72
2022/01/13 08:02:38;;;;;;;67.70;24.20;;;;;;;;;;4967135;28;20221;-72
2022/01/13 08:05:04;;;;;;;80.47;27.03;;;;;;;;;;4992762;28;20229;-72
2022/01/13 08:07:34;;;;;;;86.23;26.93;;;;;;;;;;4992009;28;20686;-72
2022/01/13 08:09:59;;;;;;;87.30;27.13;;;;;;;;;;4975375;28;20228;-74
2022/01/13 08:12:27;;;;;;;90.90;27.77;;;;;;;;;;4976164;28;20229;-73
2022/01/13 08:14:53;;;;;;;90.83;29.30;;;;;;;;;;4961304;28;20220;-73
2022/01/13 08:19:45;;;;;;;85.63;26.80;;;;;;;;;;4975686;28;20298;-71
2022/01/13 08:20:05;;;;;;;70.40;26.43;;;;;;;;;;4990384;28;20257;-72
2022/01/13 08:22:33;;;;;;;81.97;27.00;;;;;;;;;;4992629;28;20233;-72
2022/01/13 08:25:01;;;;;;;77.73;28.27;;;;;;;;;;5008996;28;20230;-72
2022/01/13 08:27:27;;;;;;;86.77;28.03;;;;;;;;;;4993092;28;21057;-72
2022/01/13 08:29:52;;;;;;;89.33;27.90;;;;;;;;;;4976392;28;20750;-71
2022/01/13 08:32:21;;;;;;;80.97;27.17;;;;;;;;;;4991381;28;20217;-72
2022/01/13 08:34:52;;;;;;;78.60;26.57;;;;;;;;;;4976487;28;20217;-72
2022/01/13 08:37:37;;;;;;;81.43;27.50;;;;;;;;;;4975488;28;20315;-72
2022/01/13 08:40:23;;;;;;;72.47;25.47;;;;;;;;;;4992095;28;20225;-72
2022/01/13 08:42:56;;;;;;;82.60;27.73;;;;;;;;;;4955676;28;20233;-72
2022/01/13 08:45:29;;;;;;;75.33;25.10;;;;;;;;;;4991742;28;20287;-72
2022/01/13 08:47:57;;;;;;;75.27;25.00;;;;;;;;;;4992065;28;20770;-72
2022/01/13 08:50:25;;;;;;;82.33;28.50;;;;;;;;;;4992821;28;20275;-71
2022/01/13 08:52:53;;;;;;;61.97;23.60;;;;;;;;;;4992171;28;20229;-72
2022/01/13 08:55:19;;;;;;;67.20;23.43;;;;;;;;;;4974170;28;20592;-72
2022/01/13 08:57:44;;;;;;;74.20;24.77;;;;;;;;;;4975209;28;20280;-72
2022/01/13 09:00:10;;;;;;;66.67;22.47;;;;;;;;;;4972292;28;20300;-72
2022/01/13 09:02:36;;;;;;;59.93;23.40;;;;;;;;;;4987929;28;20268;-72
2022/01/13 09:05:03;;;;;;;69.17;24.43;;;;;;;;;;4975798;28;20221;-72
2022/01/13 09:07:28;;;;;;;76.87;26.13;;;;;;;;;;4974775;28;20682;-72
2022/01/13 09:09:56;;;;;;;72.83;25.97;;;;;;;;;;4956267;28;20246;-72
2022/01/13 09:12:22;;;;;;;64.53;23.17;;;;;;;;;;4955171;28;20252;-73
2022/01/13 09:14:59;;;;;;;64.30;22.63;;;;;;;;;;4985087;28;20293;-73
2022/01/13 09:17:26;;;;;;;62.43;24.73;;;;;;;;;;4991612;28;20695;-71
2022/01/13 09:19:52;;;;;;;70.27;24.33;;;;;;;;;;4948929;28;20226;-74
2022/01/13 09:22:20;;;;;;;67.57;23.97;;;;;;;;;;4954108;28;20222;-72
2022/01/13 09:24:46;;;;;;;64.90;24.10;;;;;;;;;;4987183;28;20838;-71
2022/01/13 09:27:11;;;;;;;62.53;23.30;;;;;;;;;;4974273;28;20275;-72
2022/01/13 09:29:37;;;;;;;71.13;26.93;;;;;;;;;;4974349;28;20279;-73
2022/01/13 09:32:05;;;;;;;61.83;23.43;;;;;;;;;;4989621;28;20324;-73
2022/01/13 09:34:31;;;;;;;64.53;24.60;;;;;;;;;;4973321;28;20304;-72
2022/01/13 09:36:56;;;;;;;72.57;25.17;;;;;;;;;;4970799;28;20242;-71
2022/01/13 09:39:24;;;;;;;67.57;26.23;;;;;;;;;;4982374;28;20691;-72
2022/01/13 09:41:51;;;;;;;73.30;26.33;;;;;;;;;;4974007;28;20252;-72
2022/01/13 09:44:16;;;;;;;62.80;23.30;;;;;;;;;;4954551;28;20222;-73
2022/01/13 09:46:42;;;;;;;67.13;23.53;;;;;;;;;;4990309;28;20221;-73
2022/01/13 09:49:08;;;;;;;69.37;24.57;;;;;;;;;;4974250;28;20225;-73
2022/01/13 09:51:35;;;;;;;71.47;25.97;;;;;;;;;;4982818;28;20241;-70
2022/01/13 09:54:01;;;;;;;78.93;27.47;;;;;;;;;;4958629;28;20775;-72
2022/01/13 09:56:30;;;;;;;65.77;25.33;;;;;;;;;;4974043;28;20328;-72
2022/01/13 09:58:58;;;;;;;67.53;24.17;;;;;;;;;;4990802;28;20242;-73
2022/01/13 10:01:27;;;;;;;62.87;24.50;;;;;;;;;;4985322;28;20301;-72
2022/01/13 10:03:55;;;;;;;55.77;24.13;;;;;;;;;;4955108;28;20707;-71
2022/01/13 10:06:21;;;;;;;64.07;24.33;;;;;;;;;;4986429;28;20305;-73
2022/01/13 10:08:58;;;;;;;70.33;25.80;;;;;;;;;;4992355;28;20226;-73
2022/01/13 10:11:35;;;;;;;72.20;26.03;;;;;;;;;;4989126;28;20225;-72
2022/01/13 10:16:54;;;;;;;58.90;22.77;;;;;;;;;;4973184;28;20309;-75
2022/01/13 10:19:25;;;;;;;56.20;22.17;;;;;;;;;;4972913;28;20221;-73
2022/01/13 10:22:02;;;;;;;68.10;26.63;;;;;;;;;;4981343;28;20476;-73
2022/01/13 10:24:29;;;;;;;65.60;25.20;;;;;;;;;;4980922;28;20315;-72
2022/01/13 10:27:00;;;;;;;76.07;29.23;;;;;;;;;;4954696;28;20243;-74
2022/01/13 10:29:44;;;;;;;72.50;27.17;;;;;;;;;;4949226;28;20225;-73
2022/01/13 10:32:15;;;;;;;67.10;25.63;;;;;;;;;;4987319;28;20228;-73
2022/01/13 10:34:45;;;;;;;67.03;25.57;;;;;;;;;;4993981;28;20221;-73
2022/01/13 10:37:18;;;;;;;64.60;25.13;;;;;;;;;;4977802;28;20229;-70
2022/01/13 10:39:56;;;;;;;68.50;26.13;;;;;;;;;;4993988;28;20236;-73
2022/01/13 10:45:11;;;;;;;64.07;22.63;;;;;;;;;;4993487;28;20226;-73
2022/01/13 10:47:36;;;;;;;56.23;21.80;;;;;;;;;;4962370;28;20296;-73
2022/01/13 10:50:05;;;;;;;62.87;23.80;;;;;;;;;;4977208;28;20351;-73
2022/01/13 10:52:35;;;;;;;57.43;22.47;;;;;;;;;;4961554;28;20229;-71
2022/01/13 10:55:17;;;;;;;62.40;25.00;;;;;;;;;;4978505;28;20237;-73
2022/01/13 10:57:43;;;;;;;57.47;22.57;;;;;;;;;;4978611;28;20279;-72
2022/01/13 11:00:18;;;;;;;60.73;25.10;;;;;;;;;;4994183;28;20262;-72
2022/01/13 11:02:57;;;;;;;58.37;23.77;;;;;;;;;;4992894;28;20612;-70
2022/01/13 11:05:23;;;;;;;59.60;24.10;;;;;;;;;;4961333;28;20260;-72
2022/01/13 11:07:51;;;;;;;62.33;24.17;;;;;;;;;;4967601;28;20216;-71
2022/01/13 11:10:21;;;;;;;59.23;22.90;;;;;;;;;;4979354;28;20233;-71
2022/01/13 11:12:55;;;;;;;57.23;23.70;;;;;;;;;;4961623;28;20240;-72
2022/01/13 11:15:20;;;;;;;68.40;25.47;;;;;;;;;;4963107;28;20222;-72
2022/01/13 11:17:46;;;;;;;46.63;20.13;;;;;;;;;;4977215;28;20729;-72
2022/01/13 11:20:17;;;;;;;66.67;24.53;;;;;;;;;;4978921;28;20225;-72
2022/01/13 11:22:46;;;;;;;45.33;19.83;;;;;;;;;;4976515;28;20232;-73
2022/01/13 11:25:19;;;;;;;56.30;22.87;;;;;;;;;;4981422;28;20240;-72
2022/01/13 11:27:44;;;;;;;56.93;23.37;;;;;;;;;;4996402;28;20244;-72
2022/01/13 11:30:14;;;;;;;53.93;23.17;;;;;;;;;;4976617;28;20695;-72
2022/01/13 11:32:45;;;;;;;57.20;24.23;;;;;;;;;;5005620;28;20222;-73
2022/01/13 11:35:15;;;;;;;63.67;26.27;;;;;;;;;;4981989;28;20272;-74
2022/01/13 11:37:42;;;;;;;54.80;20.20;;;;;;;;;;4973368;28;20233;-72
2022/01/13 11:40:28;;;;;;;51.47;21.20;;;;;;;;;;4954552;28;20217;-74
2022/01/13 11:43:00;;;;;;;42.13;18.80;;;;;;;;;;4995584;28;20720;-73
2022/01/13 11:45:26;;;;;;;47.43;19.97;;;;;;;;;;4971523;28;20236;-73
2022/01/13 11:48:14;;;;;;;53.00;23.57;;;;;;;;;;4943439;28;20228;-71
2022/01/13 11:50:47;;;;;;;52.60;21.00;;;;;;;;;;4991654;28;20225;-73
2022/01/13 11:53:26;;;;;;;50.70;21.73;;;;;;;;;;4960115;28;20233;-73
2022/01/13 11:55:54;;;;;;;55.07;23.10;;;;;;;;;;4976212;28;20223;-73
2022/01/13 11:58:23;;;;;;;46.40;21.37;;;;;;;;;;4958482;28;20230;-73
2022/01/13 12:00:53;;;;;;;49.43;22.40;;;;;;;;;;4976210;28;20206;-73
2022/01/13 12:03:32;;;;;;;45.93;19.90;;;;;;;;;;4988883;28;20221;-73
2022/01/13 12:06:03;;;;;;;44.87;19.83;;;;;;;;;;4990227;28;20703;-72
2022/01/13 12:08:45;;;;;;;47.27;20.03;;;;;;;;;;4989936;28;20394;-73
2022/01/13 12:11:41;;;;;;;47.97;21.63;;;;;;;;;;4986150;28;20229;-73
2022/01/13 12:14:29;;;;;;;47.33;21.10;;;;;;;;;;4988204;28;20218;-73
2022/01/13 12:17:00;;;;;;;46.43;20.23;;;;;;;;;;4987735;28;20233;-73
2022/01/13 12:19:32;;;;;;;46.53;20.23;;;;;;;;;;4986300;28;20230;-72
2022/01/13 12:22:06;;;;;;;48.20;21.40;;;;;;;;;;4970794;28;20222;-72
2022/01/13 12:24:56;;;;;;;45.40;19.63;;;;;;;;;;4972223;28;20297;-73
2022/01/13 12:27:31;;;;;;;48.77;20.83;;;;;;;;;;4978561;28;20233;-72
2022/01/13 12:30:09;;;;;;;41.43;19.20;;;;;;;;;;4991258;28;20319;-72
2022/01/13 12:32:39;;;;;;;42.43;19.90;;;;;;;;;;4989973;28;20702;-73
2022/01/13 12:35:38;;;;;;;36.67;17.33;;;;;;;;;;4990967;28;20702;-72
2022/01/13 12:38:10;;;;;;;42.73;19.67;;;;;;;;;;4983310;28;20236;-73
2022/01/13 12:40:45;;;;;;;53.67;26.53;;;;;;;;;;4960628;28;20221;-73
2022/01/13 12:43:33;;;;;;;45.33;22.77;;;;;;;;;;4990496;28;20648;-72
2022/01/13 12:45:58;;;;;;;57.20;28.17;;;;;;;;;;4977621;28;20251;-72
2022/01/13 12:48:32;;;;;;;46.83;22.80;;;;;;;;;;4991321;28;20300;-73
2022/01/13 12:50:59;;;;;;;49.40;20.80;;;;;;;;;;4991209;28;20222;-73
2022/01/13 12:53:26;;;;;;;41.27;20.10;;;;;;;;;;4970983;28;20226;-73
2022/01/13 12:56:09;;;;;;;46.20;21.83;;;;;;;;;;4938961;28;20228;-72
2022/01/13 12:58:42;;;;;;;50.67;23.33;;;;;;;;;;4985502;28;20221;-73
2022/01/13 13:01:29;;;;;;;45.07;21.90;;;;;;;;;;4990024;28;20225;-72
2022/01/13 13:04:10;;;;;;;46.83;24.67;;;;;;;;;;4991219;28;20296;-72
2022/01/13 13:06:37;;;;;;;52.63;27.13;;;;;;;;;;4959206;28;20221;-72
2022/01/13 13:09:10;;;;;;;49.73;24.47;;;;;;;;;;4962606;28;20236;-72
2022/01/13 13:11:41;;;;;;;53.17;27.03;;;;;;;;;;4959190;28;20245;-73
2022/01/13 13:14:16;;;;;;;48.63;23.40;;;;;;;;;;4974446;28;20225;-72
2022/01/13 13:16:43;;;;;;;42.50;19.47;;;;;;;;;;4973251;28;20221;-72
2022/01/13 13:19:09;;;;;;;43.90;21.67;;;;;;;;;;4989103;28;20718;-73
2022/01/13 13:21:34;;;;;;;39.57;19.47;;;;;;;;;;4957463;28;20734;-73
2022/01/13 13:24:02;;;;;;;41.67;19.13;;;;;;;;;;4958086;28;20256;-73
2022/01/13 13:26:30;;;;;;;42.37;20.10;;;;;;;;;;4969719;28;20229;-73
2022/01/13 13:29:00;;;;;;;38.17;19.13;;;;;;;;;;4991646;28;20236;-74
2022/01/13 13:31:29;;;;;;;39.70;20.30;;;;;;;;;;4982151;28;20220;-72
2022/01/13 13:34:04;;;;;;;38.20;17.97;;;;;;;;;;4957573;28;20590;-73
2022/01/13 13:36:32;;;;;;;43.03;19.87;;;;;;;;;;4974741;28;20244;-73
2022/01/13 13:39:10;;;;;;;48.63;21.03;;;;;;;;;;4990603;28;20245;-73
2022/01/13 13:41:47;;;;;;;39.17;17.87;;;;;;;;;;4987981;28;20699;-73
2022/01/13 13:44:23;;;;;;;42.90;19.10;;;;;;;;;;4957584;28;20308;-73
2022/01/13 13:46:52;;;;;;;43.10;20.20;;;;;;;;;;4973699;28;20217;-73
2022/01/13 13:49:20;;;;;;;42.93;22.43;;;;;;;;;;4973443;28;20758;-73
2022/01/13 13:51:54;;;;;;;46.93;21.77;;;;;;;;;;4967909;28;20251;-72
2022/01/13 13:54:21;;;;;;;37.63;19.83;;;;;;;;;;4957204;28;20236;-73
2022/01/13 13:57:01;;;;;;;45.17;22.47;;;;;;;;;;4939442;28;20229;-73
2022/01/13 13:59:34;;;;;;;51.97;24.43;;;;;;;;;;4955735;28;20271;-73
2022/01/13 14:02:14;;;;;;;38.83;19.57;;;;;;;;;;4973560;28;20742;-73
2022/01/13 14:04:56;;;;;;;42.10;20.60;;;;;;;;;;4974126;28;20221;-73
2022/01/13 14:07:29;;;;;;;43.20;20.27;;;;;;;;;;4975366;28;20217;-73
2022/01/13 14:10:06;;;;;;;44.17;20.60;;;;;;;;;;4961104;28;20226;-73
2022/01/13 14:12:38;;;;;;;41.50;20.17;;;;;;;;;;4985865;28;20221;-74
2022/01/13 14:15:16;;;;;;;44.27;20.17;;;;;;;;;;4990925;28;20651;-72
2022/01/13 14:17:44;;;;;;;41.67;19.27;;;;;;;;;;4974843;28;20224;-73
2022/01/13 14:20:34;;;;;;;41.00;20.53;;;;;;;;;;4970277;28;20226;-74
2022/01/13 14:23:09;;;;;;;48.50;21.70;;;;;;;;;;4969549;28;20233;-74
2022/01/13 14:25:38;;;;;;;41.43;19.53;;;;;;;;;;4990277;28;20252;-74
2022/01/13 14:28:08;;;;;;;48.90;21.97;;;;;;;;;;4990117;28;20229;-74
2022/01/13 14:30:38;;;;;;;42.77;20.73;;;;;;;;;;4974222;28;20222;-73
2022/01/13 14:33:23;;;;;;;36.73;18.13;;;;;;;;;;4951355;28;20238;-72
2022/01/13 14:36:07;;;;;;;43.70;21.10;;;;;;;;;;4973319;28;20626;-73
2022/01/13 14:38:38;;;;;;;41.83;20.60;;;;;;;;;;4991043;28;20240;-73
2022/01/13 14:41:05;;;;;;;48.40;22.97;;;;;;;;;;4954117;28;20222;-73
2022/01/13 14:43:33;;;;;;;47.67;23.10;;;;;;;;;;4970253;28;20313;-73
2022/01/13 14:46:12;;;;;;;51.43;24.20;;;;;;;;;;4972846;28;20221;-73
2022/01/13 14:48:45;;;;;;;51.13;23.57;;;;;;;;;;4970107;28;20613;-73
2022/01/13 14:51:17;;;;;;;45.87;22.30;;;;;;;;;;4971219;28;20772;-74
2022/01/13 14:53:43;;;;;;;48.03;21.53;;;;;;;;;;4938700;28;20229;-72
2022/01/13 14:56:16;;;;;;;51.63;24.23;;;;;;;;;;4953454;28;20715;-71